Observation data for Pampa on 07/03/2020      Previous  Date  Next       Current Mesonet Observations  Soil Data  Daily Summary Page  Observations in Plain Language
KPMS 030500Z 17008KT 24/15 A3007 RMK A01 T02390146  RH  058%=      5-min Rain = 0
KPMS 030505Z 15007KT 24/15 A3007 RMK A01 T02360147  RH  060%=      5-min Rain = 0
KPMS 030510Z 12007KT 23/15 A3007 RMK A01 T02300148  RH  062%=      5-min Rain = 0
KPMS 030515Z 13006KT 23/15 A3007 RMK A01 T02250146  RH  064%=      5-min Rain = 0
KPMS 030520Z 14007KT 23/15 A3007 RMK A01 T02280147  RH  063%=      5-min Rain = 0
KPMS 030525Z 14006KT 23/15 A3007 RMK A01 T02290148  RH  063%=      5-min Rain = 0
KPMS 030530Z 10006KT 23/15 A3007 RMK A01 T02270148  RH  063%=      5-min Rain = 0
KPMS 030535Z 11006KT 22/15 A3007 RMK A01 T02230148  RH  065%=      5-min Rain = 0
KPMS 030540Z 12004KT 22/15 A3007 RMK A01 T02220147  RH  065%=      5-min Rain = 0
KPMS 030545Z 11005KT 22/15 A3007 RMK A01 T02170147  RH  067%=      5-min Rain = 0
KPMS 030550Z 15005KT 21/15 A3006 RMK A01 T02130147  RH  069%=      5-min Rain = 0
KPMS 030555Z 16006KT 22/15 A3006 RMK A01 T02150147  RH  068%=      5-min Rain = 0
KPMS 030600Z 15005KT 21/15 A3006 RMK A01 T02140147  RH  069%=      5-min Rain = 0
KPMS 030605Z 16006KT 21/15 A3006 RMK A01 T02110148  RH  070%=      5-min Rain = 0
KPMS 030610Z 17006KT 22/15 A3005 RMK A01 T02180148  RH  067%=      5-min Rain = 0
KPMS 030615Z 17006KT 22/15 A3005 RMK A01 T02190148  RH  067%=      5-min Rain = 0
KPMS 030620Z 18007KT 22/15 A3005 RMK A01 T02210152  RH  068%=      5-min Rain = 0
KPMS 030625Z 19009KT 23/16 A3005 RMK A01 T02280155  RH  067%=      5-min Rain = 0
KPMS 030630Z 19008KT 23/16 A3005 RMK A01 T02320156  RH  065%=      5-min Rain = 0
KPMS 030635Z 19007KT 23/16 A3005 RMK A01 T02280158  RH  068%=      5-min Rain = 0
KPMS 030640Z 19007KT 22/16 A3006 RMK A01 T02230158  RH  069%=      5-min Rain = 0
KPMS 030645Z 19007KT 22/16 A3006 RMK A01 T02210157  RH  070%=      5-min Rain = 0
KPMS 030650Z 20007KT 23/16 A3005 RMK A01 T02250157  RH  068%=      5-min Rain = 0
KPMS 030655Z 20008KT 23/16 A3005 RMK A01 T02270157  RH  068%=      5-min Rain = 0
KPMS 030700Z 19008KT 23/16 A3005 RMK A01 T02280158  RH  068%=      5-min Rain = 0
KPMS 030705Z 19009KT 23/16 A3005 RMK A01 T02280160  RH  069%=      5-min Rain = 0
KPMS 030710Z 19009KT 23/16 A3005 RMK A01 T02260160  RH  070%=      5-min Rain = 0
KPMS 030715Z 19009KT 23/16 A3005 RMK A01 T02260161  RH  070%=      5-min Rain = 0
KPMS 030720Z 20009KT 23/16 A3004 RMK A01 T02270163  RH  071%=      5-min Rain = 0
KPMS 030725Z 20008KT 23/17 A3004 RMK A01 T02290165  RH  071%=      5-min Rain = 0
KPMS 030730Z 20008KT 23/17 A3004 RMK A01 T02310167  RH  071%=      5-min Rain = 0
KPMS 030735Z 19009KT 23/17 A3004 RMK A01 T02310168  RH  071%=      5-min Rain = 0
KPMS 030740Z 20008KT 23/17 A3004 RMK A01 T02310169  RH  071%=      5-min Rain = 0
KPMS 030745Z 20008KT 23/17 A3003 RMK A01 T02290169  RH  073%=      5-min Rain = 0
KPMS 030750Z 20008KT 23/17 A3003 RMK A01 T02280170  RH  073%=      5-min Rain = 0
KPMS 030755Z 21009KT 23/17 A3003 RMK A01 T02300171  RH  073%=      5-min Rain = 0
KPMS 030800Z 22008KT 24/17 A3003 RMK A01 T02360172  RH  071%=      5-min Rain = 0
KPMS 030805Z 21008KT 24/17 A3003 RMK A01 T02350171  RH  071%=      5-min Rain = 0
KPMS 030810Z 21008KT 24/17 A3003 RMK A01 T02350171  RH  071%=      5-min Rain = 0
KPMS 030815Z 21007KT 23/17 A3003 RMK A01 T02340171  RH  071%=      5-min Rain = 0
KPMS 030820Z 21008KT 23/17 A3003 RMK A01 T02320171  RH  072%=      5-min Rain = 0
KPMS 030825Z 14012G17KT 23/17 A3004 RMK A01 T02300171  RH  073%=      5-min Rain = 0
KPMS 030830Z 13012KT 23/17 A3005 RMK A01 T02270173  RH  075%=      5-min Rain = 0
KPMS 030835Z 14010KT 23/17 A3005 RMK A01 T02290173  RH  074%=      5-min Rain = 0
KPMS 030840Z 12009KT 23/17 A3006 RMK A01 T02300172  RH  074%=      5-min Rain = 0
KPMS 030845Z 12011KT 23/17 A3006 RMK A01 T02320171  RH  072%=      5-min Rain = 0
KPMS 030850Z 11012G17KT 23/17 A3005 RMK A01 T02310170  RH  072%=      5-min Rain = 0
KPMS 030855Z 12009KT 23/17 A3005 RMK A01 T02270170  RH  074%=      5-min Rain = 0
KPMS 030900Z 13009KT 22/17 A3005 RMK A01 T02230170  RH  076%=      5-min Rain = 0
KPMS 030905Z 13008KT 22/17 A3005 RMK A01 T02210171  RH  077%=      5-min Rain = 0
KPMS 030910Z 13005KT 22/17 A3006 RMK A01 T02200171  RH  078%=      5-min Rain = 0
KPMS 030915Z 11006KT 22/17 A3006 RMK A01 T02160171  RH  079%=      5-min Rain = 0
KPMS 030920Z 09006KT 21/17 A3006 RMK A01 T02130171  RH  081%=      5-min Rain = 0
KPMS 030925Z 10004KT 21/17 A3006 RMK A01 T02110171  RH  082%=      5-min Rain = 0
KPMS 030930Z 07005KT 21/17 A3007 RMK A01 T02070170  RH  083%=      5-min Rain = 0
KPMS 030935Z 03008KT 21/17 A3007 RMK A01 T02050170  RH  084%=      5-min Rain = 0
KPMS 030940Z 01007KT 20/17 A3007 RMK A01 T02030167  RH  084%=      5-min Rain = 0
KPMS 030945Z 03007KT 20/17 A3007 RMK A01 T02020165  RH  083%=      5-min Rain = 0
KPMS 030950Z 03008KT 20/16 A3008 RMK A01 T02020164  RH  082%=      5-min Rain = 0
KPMS 030955Z 03007KT 20/16 A3008 RMK A01 T02020161  RH  081%=      5-min Rain = 0
KPMS 031000Z 03006KT 20/16 A3008 RMK A01 T02010160  RH  081%=      5-min Rain = 0
KPMS 031005Z 03005KT 20/16 A3008 RMK A01 T02000159  RH  081%=      5-min Rain = 0
KPMS 031010Z 03005KT 20/16 A3008 RMK A01 T01970158  RH  082%=      5-min Rain = 0
KPMS 031015Z 04005KT 20/16 A3008 RMK A01 T01960158  RH  082%=      5-min Rain = 0
KPMS 031020Z 04007KT 20/16 A3008 RMK A01 T01970160  RH  083%=      5-min Rain = 0
KPMS 031025Z 04006KT 20/16 A3008 RMK A01 T02000161  RH  082%=      5-min Rain = 0
KPMS 031030Z 05006KT 20/16 A3008 RMK A01 T02030161  RH  080%=      5-min Rain = 0
KPMS 031035Z 05005KT 20/16 A3008 RMK A01 T02040161  RH  080%=      5-min Rain = 0
KPMS 031040Z 07006KT 20/16 A3008 RMK A01 T02030161  RH  081%=      5-min Rain = 0
KPMS 031045Z 09006KT 21/16 A3008 RMK A01 T02050162  RH  080%=      5-min Rain = 0
KPMS 031050Z 09007KT 20/16 A3008 RMK A01 T01990159  RH  081%=      5-min Rain = 0
KPMS 031055Z 08007KT 20/16 A3008 RMK A01 T01990161  RH  083%=      5-min Rain = 0
KPMS 031100Z 08008KT 21/17 A3008 RMK A01 T02060165  RH  081%=      5-min Rain = 0
KPMS 031105Z 08008KT 21/17 A3008 RMK A01 T02080165  RH  080%=      5-min Rain = 0
KPMS 031110Z 08008KT 21/17 A3008 RMK A01 T02070165  RH  081%=      5-min Rain = 0
KPMS 031115Z 08007KT 20/17 A3008 RMK A01 T02040165  RH  082%=      5-min Rain = 0
KPMS 031120Z 08007KT 20/17 A3008 RMK A01 T02020165  RH  083%=      5-min Rain = 0
KPMS 031125Z 09007KT 20/17 A3009 RMK A01 T02020167  RH  084%=      5-min Rain = 0
KPMS 031130Z 09007KT 20/17 A3009 RMK A01 T02010168  RH  086%=      5-min Rain = 0
KPMS 031135Z 10007KT 20/17 A3009 RMK A01 T02020171  RH  087%=      5-min Rain = 0
KPMS 031140Z 11006KT 20/17 A3009 RMK A01 T02010172  RH  087%=      5-min Rain = 0
KPMS 031145Z 12007KT 20/17 A3009 RMK A01 T02030174  RH  088%=      5-min Rain = 0
KPMS 031150Z 12005KT 20/17 A3009 RMK A01 T02030174  RH  088%=      5-min Rain = 0
KPMS 031155Z 12005KT 20/17 A3009 RMK A01 T02010173  RH  088%=      5-min Rain = 0
KPMS 031200Z 12004KT 20/17 A3009 RMK A01 T02010174  RH  089%=      5-min Rain = 0
KPMS 031205Z 11004KT 20/18 A3009 RMK A01 T02020176  RH  089%=      5-min Rain = 0
KPMS 031210Z 09003KT 20/18 A3009 RMK A01 T02040177  RH  089%=      5-min Rain = 0
KPMS 031215Z 10003KT 21/18 A3009 RMK A01 T02060179  RH  089%=      5-min Rain = 0
KPMS 031220Z 12002KT 21/18 A3009 RMK A01 T02090180  RH  088%=      5-min Rain = 0
KPMS 031225Z 12002KT 21/18 A3009 RMK A01 T02120181  RH  087%=      5-min Rain = 0
KPMS 031230Z 13003KT 22/18 A3009 RMK A01 T02150182  RH  086%=      5-min Rain = 0
KPMS 031235Z 12004KT 22/18 A3009 RMK A01 T02170184  RH  086%=      5-min Rain = 0
KPMS 031240Z 13004KT 22/19 A3009 RMK A01 T02200185  RH  085%=      5-min Rain = 0
KPMS 031245Z 13004KT 22/19 A3009 RMK A01 T02220185  RH  084%=      5-min Rain = 0
KPMS 031250Z 13005KT 23/19 A3009 RMK A01 T02250187  RH  084%=      5-min Rain = 0
KPMS 031255Z 12005KT 23/19 A301 RMK A01 T02260188  RH  083%=      5-min Rain = 0
KPMS 031300Z 11006KT 23/19 A301 RMK A01 T02280188  RH  083%=      5-min Rain = 0
KPMS 031305Z 12006KT 23/19 A301 RMK A01 T02300189  RH  082%=      5-min Rain = 0
KPMS 031310Z 12005KT 23/19 A301 RMK A01 T02320190  RH  081%=      5-min Rain = 0
KPMS 031315Z 12007KT 23/19 A301 RMK A01 T02340190  RH  080%=      5-min Rain = 0
KPMS 031320Z 12008KT 24/19 A301 RMK A01 T02350191  RH  080%=      5-min Rain = 0
KPMS 031325Z 12009KT 24/19 A3011 RMK A01 T02370191  RH  080%=      5-min Rain = 0
KPMS 031330Z 14008KT 24/19 A301 RMK A01 T02380192  RH  080%=      5-min Rain = 0
KPMS 031335Z 14008KT 24/19 A301 RMK A01 T02400192  RH  079%=      5-min Rain = 0
KPMS 031340Z 14007KT 24/19 A3011 RMK A01 T02420193  RH  078%=      5-min Rain = 0
KPMS 031345Z 14007KT 25/19 A3011 RMK A01 T02450194  RH  077%=      5-min Rain = 0
KPMS 031350Z 14006KT 25/19 A3011 RMK A01 T02480194  RH  076%=      5-min Rain = 0
KPMS 031355Z 14007KT 25/19 A3011 RMK A01 T02510194  RH  075%=      5-min Rain = 0
KPMS 031400Z 15007KT 25/19 A3011 RMK A01 T02520193  RH  074%=      5-min Rain = 0
KPMS 031405Z 15007KT 25/19 A3011 RMK A01 T02530194  RH  074%=      5-min Rain = 0
KPMS 031410Z 15009KT 26/19 A3012 RMK A01 T02560194  RH  073%=      5-min Rain = 0
KPMS 031415Z 14009KT 26/19 A3012 RMK A01 T02560194  RH  072%=      5-min Rain = 0
KPMS 031420Z 14008KT 26/19 A3012 RMK A01 T02590194  RH  072%=      5-min Rain = 0
KPMS 031425Z 13009KT 26/19 A3012 RMK A01 T02580194  RH  072%=      5-min Rain = 0
KPMS 031430Z 14009KT 26/20 A3012 RMK A01 T02600195  RH  071%=      5-min Rain = 0
KPMS 031435Z 13010KT 26/20 A3013 RMK A01 T02610195  RH  071%=      5-min Rain = 0
KPMS 031440Z 14010KT 26/20 A3012 RMK A01 T02640196  RH  070%=      5-min Rain = 0
KPMS 031445Z 14008KT 27/20 A3013 RMK A01 T02660197  RH  069%=      5-min Rain = 0
KPMS 031450Z 13009KT 27/20 A3013 RMK A01 T02680197  RH  069%=      5-min Rain = 0
KPMS 031455Z 12008KT 27/20 A3013 RMK A01 T02680197  RH  069%=      5-min Rain = 0
KPMS 031500Z 13009KT 27/20 A3013 RMK A01 T02720197  RH  067%=      5-min Rain = 0
KPMS 031505Z 14009G14KT 27/20 A3013 RMK A01 T02730198  RH  067%=      5-min Rain = 0
KPMS 031510Z 14008KT 28/20 A3012 RMK A01 T02780197  RH  065%=      5-min Rain = 0
KPMS 031515Z 13009KT 28/20 A3013 RMK A01 T02770198  RH  066%=      5-min Rain = 0
KPMS 031520Z 14009KT 28/20 A3012 RMK A01 T02790197  RH  065%=      5-min Rain = 0
KPMS 031525Z 14008KT 28/20 A3012 RMK A01 T02830195  RH  063%=      5-min Rain = 0
KPMS 031530Z 13010KT 28/19 A3012 RMK A01 T02830193  RH  062%=      5-min Rain = 0
KPMS 031535Z 13011KT 28/20 A3012 RMK A01 T02800196  RH  064%=      5-min Rain = 0
KPMS 031540Z 14010KT 28/19 A3012 RMK A01 T02830194  RH  062%=      5-min Rain = 0
KPMS 031545Z 15008KT 28/19 A3012 RMK A01 T02840188  RH  059%=      5-min Rain = 0
KPMS 031550Z 15009KT 29/19 A3012 RMK A01 T02850186  RH  058%=      5-min Rain = 0
KPMS 031555Z 15008KT 29/19 A3012 RMK A01 T02910186  RH  056%=      5-min Rain = 0
KPMS 031600Z 15008KT 29/19 A3012 RMK A01 T02910188  RH  057%=      5-min Rain = 0
KPMS 031605Z 15008G13KT 29/19 A3012 RMK A01 T02920185  RH  056%=      5-min Rain = 0
KPMS 031610Z 14009G14KT 29/19 A3012 RMK A01 T02930189  RH  057%=      5-min Rain = 0
KPMS 031615Z 13008KT 30/19 A3012 RMK A01 T02970188  RH  055%=      5-min Rain = 0
KPMS 031620Z 13007KT 30/19 A3013 RMK A01 T02970188  RH  055%=      5-min Rain = 0
KPMS 031625Z 13007KT 30/19 A3013 RMK A01 T02980188  RH  054%=      5-min Rain = 0
KPMS 031630Z 14007KT 30/19 A3012 RMK A01 T02970186  RH  054%=      5-min Rain = 0.01
KPMS 031635Z 12007KT 30/19 A3012 RMK A01 T02990188  RH  054%=      5-min Rain = 0
KPMS 031640Z 12006KT 30/19 A3013 RMK A01 T03000187  RH  054%=      5-min Rain = 0
KPMS 031645Z 12006KT 30/19 A3012 RMK A01 T03010185  RH  053%=      5-min Rain = 0
KPMS 031650Z 12005KT 30/19 A3012 RMK A01 T03000187  RH  054%=      5-min Rain = 0
KPMS 031655Z 13005KT 31/19 A3012 RMK A01 T03070185  RH  051%=      5-min Rain = 0
KPMS 031700Z 13006KT 32/18 A3012 RMK A01 T03150183  RH  048%=      5-min Rain = 0
KPMS 031705Z 14007G13KT 31/18 A3012 RMK A01 T03120181  RH  048%=      5-min Rain = 0
KPMS 031710Z 13005KT 31/18 A3012 RMK A01 T03100181  RH  049%=      5-min Rain = 0
KPMS 031715Z 10006KT 31/18 A3012 RMK A01 T03130181  RH  048%=      5-min Rain = 0
KPMS 031720Z 12008KT 32/18 A3012 RMK A01 T03150182  RH  048%=      5-min Rain = 0
KPMS 031725Z 11004G9KT 31/18 A3012 RMK A01 T03100180  RH  048%=      5-min Rain = 0
KPMS 031730Z 11008G17KT 32/18 A3012 RMK A01 T03170182  RH  047%=      5-min Rain = 0
KPMS 031735Z 19005G12KT 32/18 A3012 RMK A01 T03190178  RH  045%=      5-min Rain = 0
KPMS 031740Z 11006G12KT 32/18 A3012 RMK A01 T03180177  RH  045%=      5-min Rain = 0
KPMS 031745Z 12006G11KT 32/18 A3012 RMK A01 T03190179  RH  046%=      5-min Rain = 0
KPMS 031750Z 18005G12KT 32/18 A3012 RMK A01 T03190178  RH  045%=      5-min Rain = 0
KPMS 031755Z 16005G10KT 32/18 A3012 RMK A01 T03200178  RH  045%=      5-min Rain = 0
KPMS 031800Z 14006KT 32/18 A3011 RMK A01 T03230176  RH  044%=      5-min Rain = 0
KPMS 031805Z 14003KT 32/17 A3012 RMK A01 T03200173  RH  044%=      5-min Rain = 0
KPMS 031810Z 14006G11KT 32/18 A3012 RMK A01 T03230176  RH  044%=      5-min Rain = 0
KPMS 031815Z 18006G11KT 33/17 A3011 RMK A01 T03250172  RH  042%=      5-min Rain = 0
KPMS 031820Z 17007KT 33/17 A3011 RMK A01 T03280171  RH  041%=      5-min Rain = 0
KPMS 031825Z 18004KT 32/17 A3011 RMK A01 T03240174  RH  043%=      5-min Rain = 0
KPMS 031830Z 15005G11KT 33/17 A3011 RMK A01 T03300174  RH  041%=      5-min Rain = 0
KPMS 031835Z 13009G14KT 34/17 A301 RMK A01 T03370170  RH  039%=      5-min Rain = 0
KPMS 031840Z 11005G11KT 33/17 A301 RMK A01 T03330168  RH  039%=      5-min Rain = 0
KPMS 031845Z 11005G10KT 33/16 A301 RMK A01 T03250163  RH  040%=      5-min Rain = 0
KPMS 031850Z 15005KT 32/17 A301 RMK A01 T03200165  RH  041%=      5-min Rain = 0
KPMS 031855Z 15005G11KT 33/17 A301 RMK A01 T03300168  RH  040%=      5-min Rain = 0
KPMS 031900Z 14005G14KT 34/17 A301 RMK A01 T03410167  RH  037%=      5-min Rain = 0
KPMS 031905Z 17008KT 34/17 A301 RMK A01 T03400166  RH  037%=      5-min Rain = 0
KPMS 031910Z 17004G10KT 34/17 A301 RMK A01 T03350166  RH  038%=      5-min Rain = 0
KPMS 031915Z 13006G13KT 34/16 A3009 RMK A01 T03370162  RH  037%=      5-min Rain = 0
KPMS 031920Z 16009KT 35/15 A3009 RMK A01 T03470148  RH  032%=      5-min Rain = 0
KPMS 031925Z 19006KT 35/15 A3009 RMK A01 T03450154  RH  034%=      5-min Rain = 0
KPMS 031930Z 13012KT 35/15 A3009 RMK A01 T03470149  RH  032%=      5-min Rain = 0
KPMS 031935Z 13010KT 35/15 A3009 RMK A01 T03470154  RH  033%=      5-min Rain = 0
KPMS 031940Z 14010G15KT 35/15 A3008 RMK A01 T03460153  RH  033%=      5-min Rain = 0
KPMS 031945Z 18007KT 34/15 A3008 RMK A01 T03420148  RH  033%=      5-min Rain = 0
KPMS 031950Z 14007G13KT 34/15 A3008 RMK A01 T03400147  RH  033%=      5-min Rain = 0
KPMS 031955Z 14010G18KT 35/14 A3008 RMK A01 T03460143  RH  031%=      5-min Rain = 0
KPMS 032000Z 13011G16KT 35/14 A3008 RMK A01 T03480140  RH  030%=      5-min Rain = 0
KPMS 032005Z 13008KT 35/13 A3008 RMK A01 T03500132  RH  028%=      5-min Rain = 0
KPMS 032010Z 18007G13KT 35/13 A3007 RMK A01 T03490128  RH  028%=      5-min Rain = 0
KPMS 032015Z 17007G12KT 35/13 A3007 RMK A01 T03490130  RH  028%=      5-min Rain = 0
KPMS 032020Z 19008G15KT 35/13 A3007 RMK A01 T03510126  RH  027%=      5-min Rain = 0
KPMS 032025Z 18010G15KT 35/13 A3007 RMK A01 T03480127  RH  027%=      5-min Rain = 0
KPMS 032030Z 17007G16KT 35/12 A3007 RMK A01 T03520124  RH  026%=      5-min Rain = 0
KPMS 032035Z 15005KT 35/14 A3007 RMK A01 T03530138  RH  029%=      5-min Rain = 0
KPMS 032040Z 15010KT 36/13 A3007 RMK A01 T03570134  RH  028%=      5-min Rain = 0
KPMS 032045Z 14012KT 35/14 A3007 RMK A01 T03540137  RH  028%=      5-min Rain = 0
KPMS 032050Z 13010KT 35/14 A3007 RMK A01 T03530138  RH  029%=      5-min Rain = 0
KPMS 032055Z 12011G18KT 35/14 A3007 RMK A01 T03510135  RH  029%=      5-min Rain = 0
KPMS 032100Z 13012G19KT 35/13 A3006 RMK A01 T03530133  RH  028%=      5-min Rain = 0
KPMS 032105Z 15011KT 35/13 A3007 RMK A01 T03480127  RH  027%=      5-min Rain = 0
KPMS 032110Z 14009G17KT 35/13 A3006 RMK A01 T03470128  RH  028%=      5-min Rain = 0
KPMS 032115Z 14012KT 35/13 A3006 RMK A01 T03510128  RH  027%=      5-min Rain = 0
KPMS 032120Z 16009G16KT 35/13 A3006 RMK A01 T03510130  RH  028%=      5-min Rain = 0
KPMS 032125Z 13013KT 35/14 A3006 RMK A01 T03510136  RH  029%=      5-min Rain = 0
KPMS 032130Z 12009KT 34/13 A3006 RMK A01 T03390134  RH  030%=      5-min Rain = 0
KPMS 032135Z 12009KT 34/13 A3006 RMK A01 T03360131  RH  030%=      5-min Rain = 0
KPMS 032140Z 13007KT 34/13 A3005 RMK A01 T03430126  RH  028%=      5-min Rain = 0
KPMS 032145Z 11007G15KT 35/12 A3005 RMK A01 T03490122  RH  026%=      5-min Rain = 0
KPMS 032150Z 14011G18KT 36/13 A3005 RMK A01 T03550125  RH  026%=      5-min Rain = 0
KPMS 032155Z 14011KT 35/13 A3005 RMK A01 T03520126  RH  027%=      5-min Rain = 0
KPMS 032200Z 16008KT 35/13 A3004 RMK A01 T03520131  RH  028%=      5-min Rain = 0
KPMS 032205Z 13013G18KT 35/13 A3004 RMK A01 T03540130  RH  027%=      5-min Rain = 0
KPMS 032210Z 13010KT 36/12 A3004 RMK A01 T03560122  RH  025%=      5-min Rain = 0
KPMS 032215Z 14011G16KT 36/12 A3004 RMK A01 T03590116  RH  024%=      5-min Rain = 0
KPMS 032220Z 14010KT 36/12 A3004 RMK A01 T03550116  RH  024%=      5-min Rain = 0
KPMS 032225Z 16007KT 35/10 A3004 RMK A01 T03530103  RH  023%=      5-min Rain = 0
KPMS 032230Z 15005G10KT 35/10 A3004 RMK A01 T03510104  RH  023%=      5-min Rain = 0
KPMS 032235Z 14006G12KT 35/11 A3004 RMK A01 T03540105  RH  023%=      5-min Rain = 0
KPMS 032240Z 15007G15KT 36/10 A3004 RMK A01 T03550104  RH  022%=      5-min Rain = 0
KPMS 032245Z 16008G15KT 36/10 A3004 RMK A01 T03550103  RH  022%=      5-min Rain = 0
KPMS 032250Z 14009G16KT 35/11 A3004 RMK A01 T03470111  RH  025%=      5-min Rain = 0
KPMS 032255Z 13007G14KT 35/11 A3004 RMK A01 T03480105  RH  024%=      5-min Rain = 0
KPMS 032300Z 17010G20KT 35/12 A3003 RMK A01 T03520120  RH  026%=      5-min Rain = 0
KPMS 032305Z 15011G17KT 35/13 A3003 RMK A01 T03520129  RH  027%=      5-min Rain = 0
KPMS 032310Z 14009G14KT 35/13 A3003 RMK A01 T03520130  RH  028%=      5-min Rain = 0
KPMS 032315Z 15008G13KT 35/12 A3002 RMK A01 T03510123  RH  026%=      5-min Rain = 0
KPMS 032320Z 14011G16KT 35/13 A3002 RMK A01 T03530128  RH  027%=      5-min Rain = 0
KPMS 032325Z 13012KT 35/13 A3002 RMK A01 T03490129  RH  028%=      5-min Rain = 0
KPMS 032330Z 15009KT 35/13 A3002 RMK A01 T03500128  RH  027%=      5-min Rain = 0
KPMS 032335Z 16012G17KT 35/13 A3002 RMK A01 T03500132  RH  028%=      5-min Rain = 0
KPMS 032340Z 17010KT 35/13 A3002 RMK A01 T03480129  RH  028%=      5-min Rain = 0
KPMS 032345Z 17009G15KT 35/13 A3001 RMK A01 T03470126  RH  027%=      5-min Rain = 0
KPMS 032350Z 16009G14KT 35/13 A3001 RMK A01 T03460131  RH  028%=      5-min Rain = 0
KPMS 032355Z 14010KT 35/13 A3002 RMK A01 T03490126  RH  027%=      5-min Rain = 0
KPMS 040000Z 15010KT 35/13 A3002 RMK A01 T03470125  RH  027%=      5-min Rain = 0
KPMS 040005Z 17008KT 34/13 A3002 RMK A01 T03440125  RH  028%=      5-min Rain = 0
KPMS 040010Z 18008KT 34/12 A3002 RMK A01 T03370123  RH  028%=      5-min Rain = 0
KPMS 040015Z 15009KT 33/12 A3002 RMK A01 T03340124  RH  029%=      5-min Rain = 0
KPMS 040020Z 15010KT 33/13 A3003 RMK A01 T03320129  RH  030%=      5-min Rain = 0
KPMS 040025Z 14009KT 33/13 A3003 RMK A01 T03300130  RH  031%=      5-min Rain = 0
KPMS 040030Z 15008KT 33/13 A3003 RMK A01 T03310130  RH  031%=      5-min Rain = 0
KPMS 040035Z 16008KT 33/13 A3003 RMK A01 T03310130  RH  031%=      5-min Rain = 0
KPMS 040040Z 15009KT 33/13 A3003 RMK A01 T03310130  RH  031%=      5-min Rain = 0
KPMS 040045Z 14008KT 33/13 A3003 RMK A01 T03280134  RH  032%=      5-min Rain = 0
KPMS 040050Z 14008KT 32/14 A3003 RMK A01 T03230135  RH  033%=      5-min Rain = 0
KPMS 040055Z 14009KT 32/13 A3003 RMK A01 T03200133  RH  033%=      5-min Rain = 0
KPMS 040100Z 14009KT 32/13 A3003 RMK A01 T03190132  RH  033%=      5-min Rain = 0
KPMS 040105Z 14008KT 32/13 A3003 RMK A01 T03190131  RH  033%=      5-min Rain = 0
KPMS 040110Z 14007KT 32/13 A3003 RMK A01 T03160133  RH  034%=      5-min Rain = 0
KPMS 040115Z 15007KT 31/14 A3004 RMK A01 T03120135  RH  035%=      5-min Rain = 0
KPMS 040120Z 14007KT 31/14 A3004 RMK A01 T03090135  RH  036%=      5-min Rain = 0
KPMS 040125Z 14007KT 31/13 A3004 RMK A01 T03090134  RH  036%=      5-min Rain = 0
KPMS 040130Z 14007KT 31/14 A3004 RMK A01 T03080135  RH  036%=      5-min Rain = 0
KPMS 040135Z 14007KT 31/14 A3004 RMK A01 T03050136  RH  037%=      5-min Rain = 0
KPMS 040140Z 14007KT 30/14 A3004 RMK A01 T03000138  RH  039%=      5-min Rain = 0
KPMS 040145Z 15007KT 30/14 A3004 RMK A01 T02960139  RH  040%=      5-min Rain = 0
KPMS 040150Z 15006KT 29/14 A3004 RMK A01 T02920139  RH  041%=      5-min Rain = 0
KPMS 040155Z 15005KT 29/14 A3004 RMK A01 T02890140  RH  042%=      5-min Rain = 0
KPMS 040200Z 16005KT 29/14 A3004 RMK A01 T02870138  RH  042%=      5-min Rain = 0
KPMS 040205Z 15004KT 29/14 A3005 RMK A01 T02860137  RH  042%=      5-min Rain = 0
KPMS 040210Z 15005KT 29/14 A3005 RMK A01 T02850139  RH  042%=      5-min Rain = 0
KPMS 040215Z 15004KT 28/14 A3005 RMK A01 T02840139  RH  043%=      5-min Rain = 0
KPMS 040220Z 18003KT 28/14 A3006 RMK A01 T02840139  RH  043%=      5-min Rain = 0
KPMS 040225Z 17003KT 29/14 A3006 RMK A01 T02850142  RH  043%=      5-min Rain = 0
KPMS 040230Z 16003KT 29/14 A3006 RMK A01 T02850141  RH  043%=      5-min Rain = 0
KPMS 040235Z 17003KT 29/14 A3006 RMK A01 T02860141  RH  043%=      5-min Rain = 0
KPMS 040240Z 17003KT 29/14 A3006 RMK A01 T02860142  RH  043%=      5-min Rain = 0
KPMS 040245Z 17003KT 28/14 A3007 RMK A01 T02840142  RH  044%=      5-min Rain = 0
KPMS 040250Z 16004KT 28/14 A3007 RMK A01 T02810142  RH  044%=      5-min Rain = 0
KPMS 040255Z 16004KT 28/14 A3007 RMK A01 T02810143  RH  044%=      5-min Rain = 0
KPMS 040300Z 16004KT 28/14 A3007 RMK A01 T02770143  RH  046%=      5-min Rain = 0
KPMS 040305Z 16003KT 28/14 A3008 RMK A01 T02760144  RH  046%=      5-min Rain = 0
KPMS 040310Z 16002KT 27/14 A3008 RMK A01 T02740143  RH  046%=      5-min Rain = 0
KPMS 040315Z 16001KT 27/14 A3008 RMK A01 T02720143  RH  047%=      5-min Rain = 0
KPMS 040320Z 16003KT 27/14 A3008 RMK A01 T02700143  RH  048%=      5-min Rain = 0
KPMS 040325Z 16004KT 27/14 A3009 RMK A01 T02720144  RH  047%=      5-min Rain = 0
KPMS 040330Z 15003KT 27/15 A3009 RMK A01 T02720146  RH  048%=      5-min Rain = 0
KPMS 040335Z 10005KT 26/15 A301 RMK A01 T02640147  RH  051%=      5-min Rain = 0
KPMS 040340Z 12005KT 27/15 A301 RMK A01 T02690146  RH  049%=      5-min Rain = 0
KPMS 040345Z 12005KT 27/15 A301 RMK A01 T02690147  RH  049%=      5-min Rain = 0
KPMS 040350Z 14004KT 27/15 A301 RMK A01 T02670148  RH  050%=      5-min Rain = 0
KPMS 040355Z 15004KT 27/15 A301 RMK A01 T02710148  RH  049%=      5-min Rain = 0
KPMS 040400Z 15004KT 27/15 A301 RMK A01 T02720147  RH  049%=      5-min Rain = 0
KPMS 040405Z 15004KT 27/15 A301 RMK A01 T02700149  RH  050%=      5-min Rain = 0
KPMS 040410Z 30006G14KT 27/15 A301 RMK A01 T02680150  RH  050%=      5-min Rain = 0
KPMS 040415Z 32014G20KT 27/14 A3011 RMK A01 T02670136  RH  046%=      5-min Rain = 0
KPMS 040420Z 01011KT 27/13 A3011 RMK A01 T02670131  RH  045%=      5-min Rain = 0
KPMS 040425Z 01011G16KT 27/13 A3011 RMK A01 T02680130  RH  044%=      5-min Rain = 0
KPMS 040430Z 36010KT 27/13 A3011 RMK A01 T02660131  RH  045%=      5-min Rain = 0
KPMS 040435Z 00009KT 26/13 A3012 RMK A01 T02630131  RH  046%=      5-min Rain = 0
KPMS 040440Z 01010KT 26/13 A3012 RMK A01 T02610132  RH  047%=      5-min Rain = 0
KPMS 040445Z 03012KT 26/13 A3012 RMK A01 T02610132  RH  047%=      5-min Rain = 0
KPMS 040450Z 03011KT 26/13 A3012 RMK A01 T02580133  RH  048%=      5-min Rain = 0
KPMS 040455Z 02009KT 26/13 A3012 RMK A01 T02550134  RH  049%=      5-min Rain = 0

Page generated in 0.0095 seconds.